createdAt,value
2018-07-20T00:01:27.886Z,21.10
2018-07-20T00:03:56.803Z,21.03
2018-07-20T00:06:25.715Z,20.96
2018-07-20T00:08:54.743Z,21.01
2018-07-20T00:11:23.657Z,21.06
2018-07-20T00:13:52.941Z,21.07
2018-07-20T00:16:22.212Z,21.01
2018-07-20T00:18:51.419Z,20.89
2018-07-20T00:21:20.736Z,20.80
2018-07-20T00:23:49.886Z,20.76
2018-07-20T00:26:18.889Z,20.81
2018-07-20T00:28:47.809Z,20.82
2018-07-20T00:31:16.715Z,20.83
2018-07-20T00:33:49.228Z,20.80
2018-07-20T00:36:18.167Z,20.79
2018-07-20T00:38:47.088Z,20.79
2018-07-20T00:41:15.969Z,20.79
2018-07-20T00:43:44.877Z,20.78
2018-07-20T00:46:13.774Z,20.72
2018-07-20T00:48:42.677Z,20.67
2018-07-20T00:51:11.566Z,20.57
2018-07-20T00:53:40.443Z,20.55
2018-07-20T00:56:09.358Z,20.43
2018-07-20T00:58:38.252Z,20.47
2018-07-20T01:01:07.153Z,20.52
2018-07-20T01:03:36.040Z,20.41
2018-07-20T01:06:05.309Z,20.37
2018-07-20T01:08:34.236Z,20.35
2018-07-20T01:11:03.162Z,20.28
2018-07-20T01:13:35.235Z,20.18
2018-07-20T01:16:04.430Z,20.15
2018-07-20T01:18:33.326Z,20.16
2018-07-20T01:21:02.229Z,20.16
2018-07-20T01:23:31.409Z,20.03
2018-07-20T01:26:00.570Z,19.80
2018-07-20T01:28:29.726Z,19.87
2018-07-20T01:30:58.856Z,19.96
2018-07-20T01:33:27.737Z,19.94
2018-07-20T01:35:56.615Z,19.88
2018-07-20T01:38:25.561Z,19.86
2018-07-20T01:40:54.461Z,19.83
2018-07-20T01:43:23.330Z,19.76
2018-07-20T01:45:52.230Z,19.78
2018-07-20T01:48:21.136Z,19.73
2018-07-20T01:50:50.070Z,19.70
2018-07-20T01:53:18.980Z,19.64
2018-07-20T01:55:47.955Z,19.65
2018-07-20T01:58:16.818Z,19.59
2018-07-20T02:00:45.769Z,19.64
2018-07-20T02:03:14.653Z,19.55
2018-07-20T02:05:43.573Z,19.52
2018-07-20T02:08:12.519Z,19.55
2018-07-20T02:10:41.420Z,19.53
2018-07-20T02:13:10.823Z,19.48
2018-07-20T02:15:39.749Z,19.42
2018-07-20T02:18:08.610Z,19.35
2018-07-20T02:20:37.518Z,19.35
2018-07-20T02:23:06.478Z,19.30
2018-07-20T02:25:35.523Z,19.25
2018-07-20T02:28:04.647Z,19.32
2018-07-20T02:30:33.804Z,19.22
2018-07-20T02:33:02.967Z,19.18
2018-07-20T02:35:31.883Z,19.17
2018-07-20T02:38:00.885Z,19.22
2018-07-20T02:40:29.782Z,19.25
2018-07-20T02:42:58.671Z,19.23
2018-07-20T02:45:27.608Z,19.05
2018-07-20T02:47:56.564Z,19.06
2018-07-20T02:50:25.472Z,19.06
2018-07-20T02:52:54.608Z,19.10
2018-07-20T02:55:23.784Z,19.06
2018-07-20T02:57:52.962Z,19.00
2018-07-20T03:00:22.209Z,19.02
2018-07-20T03:02:51.306Z,19.10
2018-07-20T03:05:20.204Z,19.11
2018-07-20T03:07:49.083Z,19.08
2018-07-20T03:10:18.070Z,19.03
2018-07-20T03:12:47.033Z,19.03
2018-07-20T03:15:15.930Z,19.09
2018-07-20T03:17:44.833Z,18.99
2018-07-20T03:20:13.702Z,19.01
2018-07-20T03:22:42.632Z,18.92
2018-07-20T03:25:11.524Z,18.93
2018-07-20T03:27:40.473Z,18.94
2018-07-20T03:30:09.359Z,18.88
2018-07-20T03:32:38.329Z,18.81
2018-07-20T03:35:07.307Z,18.84
2018-07-20T03:37:36.364Z,18.78
2018-07-20T03:40:05.297Z,18.83
2018-07-20T03:42:34.182Z,18.88
2018-07-20T03:45:03.153Z,18.81
2018-07-20T03:47:32.045Z,18.89
2018-07-20T03:50:00.951Z,18.84
2018-07-20T03:52:29.837Z,18.80
2018-07-20T03:54:58.785Z,18.74
2018-07-20T03:57:27.695Z,18.74
2018-07-20T03:59:56.597Z,18.78
2018-07-20T04:02:25.557Z,18.65
2018-07-20T04:04:54.417Z,18.64
2018-07-20T04:07:23.334Z,18.67
2018-07-20T04:09:52.245Z,18.63
2018-07-20T04:12:21.150Z,18.66
2018-07-20T04:14:50.050Z,18.65
2018-07-20T04:17:18.981Z,18.66
2018-07-20T04:19:47.905Z,18.72
2018-07-20T04:22:16.795Z,18.75
2018-07-20T04:24:45.718Z,18.75
2018-07-20T04:27:14.752Z,18.71
2018-07-20T04:29:47.208Z,18.76
2018-07-20T04:32:16.111Z,18.81
2018-07-20T04:34:45.013Z,18.84
2018-07-20T04:37:13.937Z,18.79
2018-07-20T04:39:42.835Z,18.78
2018-07-20T04:42:11.756Z,18.85
2018-07-20T04:44:40.668Z,18.67
2018-07-20T04:47:09.555Z,18.78
2018-07-20T04:49:38.449Z,18.82
2018-07-20T04:52:07.388Z,18.82
2018-07-20T04:54:36.287Z,18.85
2018-07-20T04:57:05.221Z,18.88
2018-07-20T04:59:34.343Z,18.92
2018-07-20T05:02:03.347Z,18.87
2018-07-20T05:04:32.268Z,18.91
2018-07-20T05:07:01.155Z,19.03
2018-07-20T05:09:30.080Z,18.93
2018-07-20T05:11:58.974Z,18.96
2018-07-20T05:14:27.891Z,18.93
2018-07-20T05:16:56.824Z,19.01
2018-07-20T05:19:26.773Z,19.03
2018-07-20T05:21:56.097Z,19.05
2018-07-20T05:24:25.088Z,19.13
2018-07-20T05:26:53.976Z,19.24
2018-07-20T05:29:22.877Z,19.22
2018-07-20T05:31:51.786Z,19.11
2018-07-20T05:34:20.685Z,19.16
2018-07-20T05:36:49.580Z,19.31
2018-07-20T05:39:18.549Z,19.44
2018-07-20T05:41:47.706Z,19.42
2018-07-20T05:44:16.810Z,19.35
2018-07-20T05:46:45.736Z,19.30
2018-07-20T05:49:14.661Z,19.35
2018-07-20T05:51:43.542Z,19.51
2018-07-20T05:54:12.447Z,19.60
2018-07-20T05:56:41.381Z,19.68
2018-07-20T05:59:10.269Z,19.69
2018-07-20T06:01:39.205Z,19.81
2018-07-20T06:04:08.686Z,19.92
2018-07-20T06:06:37.490Z,19.99
2018-07-20T06:09:09.196Z,20.03
2018-07-20T06:11:38.103Z,20.07
2018-07-20T06:14:07.492Z,20.12
2018-07-20T06:16:36.424Z,20.12
2018-07-20T06:19:05.408Z,20.16
2018-07-20T06:21:34.262Z,20.23
2018-07-20T06:24:03.159Z,20.32
2018-07-20T06:26:32.059Z,20.32
2018-07-20T06:29:00.935Z,20.37
2018-07-20T06:31:29.850Z,20.39
2018-07-20T06:33:58.790Z,20.50
2018-07-20T06:36:27.661Z,20.55
2018-07-20T06:38:56.569Z,20.64
2018-07-20T06:41:25.665Z,20.76
2018-07-20T06:43:54.546Z,20.81
2018-07-20T06:46:23.469Z,20.85
2018-07-20T06:48:52.397Z,20.92
2018-07-20T06:51:21.296Z,20.96
2018-07-20T06:53:50.217Z,20.97
2018-07-20T06:56:19.465Z,21.06
2018-07-20T06:58:48.393Z,21.07
2018-07-20T07:01:17.363Z,21.10
2018-07-20T07:03:46.323Z,21.24
2018-07-20T07:06:15.213Z,21.35
2018-07-20T07:08:44.217Z,21.38
2018-07-20T07:11:16.722Z,21.39
2018-07-20T07:13:45.632Z,21.33
2018-07-20T07:16:14.679Z,21.31
2018-07-20T07:18:43.633Z,21.35
2018-07-20T07:21:12.533Z,21.37
2018-07-20T07:23:41.528Z,21.40
2018-07-20T07:26:10.391Z,21.48
2018-07-20T07:28:40.289Z,21.54
2018-07-20T07:31:09.214Z,21.57
2018-07-20T07:33:38.087Z,21.63
2018-07-20T07:36:07.012Z,21.66
2018-07-20T07:38:35.936Z,21.66
2018-07-20T07:41:04.829Z,21.71
2018-07-20T07:43:37.840Z,21.74
2018-07-20T07:46:07.064Z,21.78
2018-07-20T07:48:36.770Z,21.82
2018-07-20T07:51:05.787Z,21.86
2018-07-20T07:53:34.698Z,21.98
2018-07-20T07:56:03.613Z,22.07
2018-07-20T07:58:32.539Z,22.10
2018-07-20T08:01:01.443Z,22.15
2018-07-20T08:03:30.394Z,22.26
2018-07-20T08:06:03.047Z,22.32
2018-07-20T08:08:31.949Z,22.42
2018-07-20T08:11:00.904Z,22.50
2018-07-20T08:13:29.807Z,22.65
2018-07-20T08:18:32.873Z,22.62
2018-07-20T08:21:01.813Z,22.69
2018-07-20T08:23:30.719Z,22.72
2018-07-20T08:25:59.795Z,22.74
2018-07-20T08:28:28.753Z,22.84
2018-07-20T08:30:57.697Z,22.94
2018-07-20T08:33:26.776Z,23.02
2018-07-20T08:35:55.695Z,23.04
2018-07-20T08:38:24.666Z,23.09
2018-07-20T08:40:53.562Z,23.19
2018-07-20T08:43:22.543Z,23.24
2018-07-20T08:45:51.623Z,23.33
2018-07-20T08:48:20.704Z,23.35
2018-07-20T08:50:49.733Z,23.35
2018-07-20T08:53:19.667Z,23.41
2018-07-20T08:55:48.620Z,23.42
2018-07-20T08:58:17.554Z,23.51
2018-07-20T09:00:49.554Z,23.57
2018-07-20T09:03:18.552Z,23.59
2018-07-20T09:05:47.458Z,23.60
2018-07-20T09:08:16.523Z,23.75
2018-07-20T09:10:45.626Z,23.74
2018-07-20T09:13:14.628Z,23.78
2018-07-20T09:15:43.521Z,23.80
2018-07-20T09:18:12.467Z,23.85
2018-07-20T09:20:41.580Z,23.93
2018-07-20T09:23:10.381Z,23.94
2018-07-20T09:25:39.290Z,24.01
2018-07-20T09:28:08.366Z,24.09
2018-07-20T09:30:37.314Z,24.17
2018-07-20T09:33:06.332Z,24.25
2018-07-20T09:35:35.242Z,24.26
2018-07-20T09:38:04.150Z,24.30
2018-07-20T09:40:33.128Z,24.36
2018-07-20T09:43:02.022Z,24.43
2018-07-20T09:45:30.970Z,24.28
2018-07-20T09:47:59.934Z,24.24
2018-07-20T09:50:28.849Z,24.33
2018-07-20T09:52:57.819Z,24.31
2018-07-20T09:55:26.737Z,24.55
2018-07-20T09:57:55.637Z,24.55
2018-07-20T10:00:29.944Z,24.52
2018-07-20T10:02:58.838Z,24.58
2018-07-20T10:05:27.939Z,24.70
2018-07-20T10:07:57.051Z,24.70
2018-07-20T10:10:26.004Z,24.62
2018-07-20T10:12:55.141Z,24.60
2018-07-20T10:15:24.039Z,24.60
2018-07-20T10:17:52.946Z,24.61
2018-07-20T10:20:21.898Z,24.53
2018-07-20T10:22:50.994Z,24.58
2018-07-20T10:25:19.928Z,24.61
2018-07-20T10:27:48.832Z,24.62
2018-07-20T10:30:17.747Z,24.64
2018-07-20T10:32:50.480Z,24.79
2018-07-20T10:35:19.399Z,24.86
2018-07-20T10:37:48.335Z,24.91
2018-07-20T10:40:17.406Z,24.91
2018-07-20T10:42:46.564Z,25.01
2018-07-20T10:45:15.472Z,25.01
2018-07-20T10:47:44.454Z,25.06
2018-07-20T10:50:13.366Z,25.08
2018-07-20T10:52:42.313Z,25.06
2018-07-20T10:55:11.277Z,25.13
2018-07-20T10:57:40.188Z,25.25
2018-07-20T11:00:09.105Z,25.37
2018-07-20T11:02:38.009Z,25.37
2018-07-20T11:05:06.939Z,25.36
2018-07-20T11:07:36.022Z,25.40
2018-07-20T11:10:05.276Z,25.48
2018-07-20T11:12:34.225Z,25.49
2018-07-20T11:15:03.388Z,25.68
2018-07-20T11:17:32.300Z,25.85
2018-07-20T11:20:01.228Z,25.78
2018-07-20T11:22:30.127Z,25.75
2018-07-20T11:24:59.060Z,25.76
2018-07-20T11:27:28.009Z,25.73
2018-07-20T11:29:56.929Z,25.68
2018-07-20T11:32:25.865Z,25.70
2018-07-20T11:34:54.843Z,25.65
2018-07-20T11:37:23.729Z,25.61
2018-07-20T11:39:52.687Z,25.71
2018-07-20T11:42:21.657Z,25.82
2018-07-20T11:44:50.709Z,26.10
2018-07-20T11:47:19.638Z,26.21
2018-07-20T11:49:48.611Z,26.07
2018-07-20T11:52:17.553Z,26.09
2018-07-20T11:54:46.481Z,26.16
2018-07-20T11:57:15.599Z,26.38
2018-07-20T11:59:44.546Z,26.38
2018-07-20T12:02:13.503Z,26.53
2018-07-20T12:04:42.433Z,26.57
2018-07-20T12:07:11.428Z,26.58
2018-07-20T12:09:40.800Z,26.62
2018-07-20T12:12:09.875Z,26.71
2018-07-20T12:14:38.779Z,26.71
2018-07-20T12:17:07.749Z,26.88
2018-07-20T12:19:36.649Z,27.14
2018-07-20T12:22:05.549Z,27.43
2018-07-20T12:24:34.484Z,27.43
2018-07-20T12:27:03.352Z,27.25
2018-07-20T12:29:32.350Z,27.13
2018-07-20T12:32:01.276Z,27.06
2018-07-20T12:34:30.218Z,27.12
2018-07-20T12:36:59.157Z,27.19
2018-07-20T12:39:28.336Z,27.31
2018-07-20T12:41:57.467Z,27.02
2018-07-20T12:44:26.647Z,26.94
2018-07-20T12:46:55.877Z,26.93
2018-07-20T12:49:24.767Z,27.01
2018-07-20T12:51:53.705Z,27.18
2018-07-20T12:54:22.617Z,27.34
2018-07-20T12:56:51.556Z,27.64
2018-07-20T12:59:20.658Z,27.70
2018-07-20T13:01:49.542Z,27.80
2018-07-20T13:04:22.198Z,27.92
2018-07-20T13:06:51.118Z,27.93
2018-07-20T13:09:21.522Z,28.13
2018-07-20T13:11:50.520Z,28.39
2018-07-20T13:14:19.421Z,28.41
2018-07-20T13:16:48.341Z,28.39
2018-07-20T13:19:17.261Z,28.32
2018-07-20T13:21:46.180Z,28.45
2018-07-20T13:24:15.085Z,28.48
2018-07-20T13:26:44.040Z,28.38
2018-07-20T13:29:12.928Z,28.31
2018-07-20T13:31:41.842Z,28.20
2018-07-20T13:34:10.803Z,28.38
2018-07-20T13:36:39.705Z,28.33
2018-07-20T13:39:10.222Z,28.40
2018-07-20T13:41:39.926Z,28.39
2018-07-20T13:44:08.943Z,28.37
2018-07-20T13:46:38.071Z,28.29
2018-07-20T13:49:07.052Z,28.36
2018-07-20T13:51:36.031Z,28.40
2018-07-20T13:54:04.966Z,28.35
2018-07-20T13:56:33.955Z,28.30
2018-07-20T13:59:02.949Z,28.25
2018-07-20T14:01:32.491Z,28.11
2018-07-20T14:04:01.999Z,28.37
2018-07-20T14:06:30.927Z,28.45
2018-07-20T14:08:59.862Z,28.53
2018-07-20T14:11:28.939Z,28.44
2018-07-20T14:13:57.819Z,28.46
2018-07-20T14:16:26.724Z,28.39
2018-07-20T14:18:55.638Z,28.42
2018-07-20T14:21:24.582Z,28.50
2018-07-20T14:23:53.564Z,28.43
2018-07-20T14:26:22.577Z,28.43
2018-07-20T14:28:51.488Z,28.44
2018-07-20T14:31:20.505Z,28.37
2018-07-20T14:33:49.672Z,28.32
2018-07-20T14:36:18.611Z,28.32
2018-07-20T14:38:47.553Z,28.43
2018-07-20T14:41:16.509Z,28.44
2018-07-20T14:43:45.596Z,28.43
2018-07-20T14:46:14.527Z,28.36
2018-07-20T14:48:47.015Z,28.37
2018-07-20T14:51:19.258Z,28.38
2018-07-20T14:53:48.196Z,28.33
2018-07-20T14:56:17.144Z,28.46
2018-07-20T14:58:46.179Z,28.47
2018-07-20T15:01:15.105Z,28.32
2018-07-20T15:03:44.013Z,28.27
2018-07-20T15:06:12.906Z,28.26
2018-07-20T15:08:41.849Z,28.30
2018-07-20T15:11:10.735Z,28.31
2018-07-20T15:13:39.710Z,28.27
2018-07-20T15:16:08.655Z,28.31
2018-07-20T15:18:37.586Z,28.49
2018-07-20T15:21:06.623Z,28.39
2018-07-20T15:23:35.532Z,28.32
2018-07-20T15:26:04.438Z,28.13
2018-07-20T15:28:33.340Z,28.14
2018-07-20T15:31:02.227Z,28.05
2018-07-20T15:33:31.169Z,28.09
2018-07-20T15:36:00.082Z,28.37
2018-07-20T15:38:29.340Z,28.31
2018-07-20T15:40:58.816Z,28.41
2018-07-20T15:43:27.788Z,28.31
2018-07-20T15:46:05.861Z,28.22
2018-07-20T15:48:25.700Z,28.14
2018-07-20T15:50:54.648Z,28.23
2018-07-20T15:53:38.579Z,28.19
2018-07-20T15:55:53.488Z,28.35
2018-07-20T15:58:23.066Z,28.40
2018-07-20T16:00:53.188Z,28.23
2018-07-20T16:03:22.964Z,28.22
2018-07-20T16:05:53.062Z,28.30
2018-07-20T16:08:21.990Z,28.26
2018-07-20T16:10:50.939Z,28.16
2018-07-20T16:13:19.850Z,28.34
2018-07-20T16:15:48.757Z,28.30
2018-07-20T16:18:17.801Z,28.21
2018-07-20T16:20:46.718Z,28.20
2018-07-20T16:23:15.922Z,28.11
2018-07-20T16:25:44.893Z,28.06
2018-07-20T16:28:13.747Z,28.15
2018-07-20T16:30:42.662Z,28.13
2018-07-20T16:33:11.785Z,28.13
2018-07-20T16:35:40.706Z,28.10
2018-07-20T16:38:09.649Z,28.00
2018-07-20T16:40:38.621Z,28.06
2018-07-20T16:43:07.549Z,28.07
2018-07-20T16:45:36.524Z,27.99
2018-07-20T16:48:05.641Z,27.82
2018-07-20T16:50:35.057Z,27.78
2018-07-20T16:53:04.016Z,27.79
2018-07-20T16:55:32.908Z,27.75
2018-07-20T16:58:01.828Z,27.67
2018-07-20T17:00:34.166Z,27.60
2018-07-20T17:03:03.092Z,27.52
2018-07-20T17:05:32.067Z,27.54
2018-07-20T17:08:01.075Z,27.50
2018-07-20T17:10:30.032Z,27.41
2018-07-20T17:12:58.925Z,27.40
2018-07-20T17:15:27.829Z,27.37
2018-07-20T17:17:56.745Z,27.31
2018-07-20T17:20:29.197Z,27.39
2018-07-20T17:22:58.116Z,27.34
2018-07-20T17:25:30.624Z,27.28
2018-07-20T17:27:59.527Z,27.26
2018-07-20T17:30:28.425Z,27.21
2018-07-20T17:32:57.345Z,27.16
2018-07-20T17:35:26.453Z,27.08
2018-07-20T17:37:55.454Z,27.06
2018-07-20T17:40:24.366Z,27.00
2018-07-20T17:42:53.585Z,26.95
2018-07-20T17:45:22.576Z,26.90
2018-07-20T17:47:51.530Z,26.84
2018-07-20T17:50:20.410Z,26.79
2018-07-20T17:52:52.885Z,26.76
2018-07-20T17:55:21.784Z,26.75
2018-07-20T17:57:50.733Z,26.74
2018-07-20T18:00:19.697Z,26.71
2018-07-20T18:02:48.645Z,26.66
2018-07-20T18:05:17.526Z,26.64
2018-07-20T18:07:46.497Z,26.61
2018-07-20T18:10:15.397Z,26.53
2018-07-20T18:12:44.301Z,26.49
2018-07-20T18:15:13.277Z,26.46
2018-07-20T18:17:42.301Z,26.42
2018-07-20T18:20:12.995Z,26.37
2018-07-20T18:22:45.658Z,26.32
2018-07-20T18:25:16.729Z,26.27
2018-07-20T18:27:46.692Z,26.21
2018-07-20T18:30:15.595Z,26.16
2018-07-20T18:32:44.608Z,26.12
2018-07-20T18:35:13.530Z,26.09
2018-07-20T18:37:42.480Z,26.07
2018-07-20T18:40:11.415Z,26.03
2018-07-20T18:42:41.227Z,26.01
2018-07-20T18:45:10.761Z,25.96
2018-07-20T18:47:39.774Z,25.95
2018-07-20T18:50:09.575Z,25.91
2018-07-20T18:52:38.742Z,25.88
2018-07-20T18:55:07.934Z,25.84
2018-07-20T18:57:36.820Z,25.81
2018-07-20T19:00:06.233Z,25.78
2018-07-20T19:02:35.117Z,25.78
2018-07-20T19:05:04.084Z,25.72
2018-07-20T19:07:33.003Z,25.70
2018-07-20T19:10:02.004Z,25.66
2018-07-20T19:12:31.462Z,25.62
2018-07-20T19:15:00.791Z,25.59
2018-07-20T19:17:30.425Z,25.53
2018-07-20T19:19:59.350Z,25.52
2018-07-20T19:22:28.378Z,25.47
2018-07-20T19:24:57.379Z,25.41
2018-07-20T19:27:26.385Z,25.40
2018-07-20T19:29:55.429Z,25.41
2018-07-20T19:32:24.414Z,25.36
2018-07-20T19:34:53.456Z,25.34
2018-07-20T19:37:22.688Z,25.32
2018-07-20T19:39:51.745Z,25.32
2018-07-20T19:42:20.588Z,25.25
2018-07-20T19:44:49.525Z,25.19
2018-07-20T19:47:18.451Z,25.17
2018-07-20T19:49:47.371Z,25.11
2018-07-20T19:52:16.318Z,25.06
2018-07-20T19:54:45.213Z,25.04
2018-07-20T19:57:14.430Z,24.98
2018-07-20T19:59:43.371Z,24.95
2018-07-20T20:02:12.422Z,24.94
2018-07-20T20:04:41.355Z,24.95
2018-07-20T20:07:10.304Z,24.95
2018-07-20T20:09:39.192Z,24.89
2018-07-20T20:12:08.124Z,24.79
2018-07-20T20:14:37.276Z,24.79
2018-07-20T20:17:07.162Z,24.76
2018-07-20T20:19:36.082Z,24.72
2018-07-20T20:22:05.439Z,24.72
2018-07-20T20:24:34.353Z,24.73
2018-07-20T20:27:04.288Z,24.72
2018-07-20T20:29:33.818Z,24.70
2018-07-20T20:32:02.902Z,24.68
2018-07-20T20:34:32.416Z,24.66
2018-07-20T20:37:01.309Z,24.54
2018-07-20T20:39:30.262Z,24.50
2018-07-20T20:41:59.226Z,24.47
2018-07-20T20:44:28.349Z,24.44
2018-07-20T20:46:57.251Z,24.44
2018-07-20T20:49:26.182Z,24.39
2018-07-20T20:51:55.071Z,24.32
2018-07-20T20:54:23.992Z,24.19
2018-07-20T20:56:52.987Z,24.20
2018-07-20T20:59:22.009Z,24.21
2018-07-20T21:01:51.054Z,24.22
2018-07-20T21:04:19.981Z,24.18
2018-07-20T21:06:48.875Z,24.08
2018-07-20T21:09:17.815Z,24.11
2018-07-20T21:11:50.554Z,24.13
2018-07-20T21:14:19.478Z,24.14
2018-07-20T21:16:48.396Z,24.15
2018-07-20T21:19:17.286Z,24.14
2018-07-20T21:21:49.487Z,24.10
2018-07-20T21:24:18.772Z,24.12
2018-07-20T21:26:47.709Z,24.11
2018-07-20T21:29:16.669Z,24.09
2018-07-20T21:31:45.554Z,24.13
2018-07-20T21:34:14.443Z,24.10
2018-07-20T21:36:43.349Z,24.11
2018-07-20T21:39:13.392Z,24.08
2018-07-20T21:41:43.492Z,24.08
2018-07-20T21:44:12.625Z,24.05
2018-07-20T21:46:41.649Z,24.01
2018-07-20T21:49:10.533Z,23.96
2018-07-20T21:51:39.679Z,23.90
2018-07-20T21:54:12.035Z,23.89
2018-07-20T21:56:40.995Z,23.83
2018-07-20T21:59:09.904Z,23.78
2018-07-20T22:01:38.837Z,23.76
2018-07-20T22:04:07.811Z,23.77
2018-07-20T22:06:36.743Z,23.74
2018-07-20T22:09:08.169Z,23.71
2018-07-20T22:11:37.437Z,23.69
2018-07-20T22:14:06.779Z,23.68
2018-07-20T22:16:36.211Z,23.54
2018-07-20T22:19:05.157Z,23.47
2018-07-20T22:21:34.181Z,23.57
2018-07-20T22:24:03.088Z,23.58
2018-07-20T22:26:32.113Z,23.61
2018-07-20T22:29:01.005Z,23.61
2018-07-20T22:31:30.298Z,23.55
2018-07-20T22:33:59.197Z,23.60
2018-07-20T22:36:28.219Z,23.62
2018-07-20T22:38:57.749Z,23.61
2018-07-20T22:41:26.652Z,23.65
2018-07-20T22:43:55.656Z,23.64
2018-07-20T22:46:24.542Z,23.68
2018-07-20T22:48:53.484Z,23.68
2018-07-20T22:51:22.435Z,23.64
2018-07-20T22:53:51.444Z,23.61
2018-07-20T22:56:20.948Z,23.60
2018-07-20T22:58:49.864Z,23.60
2018-07-20T23:01:19.073Z,23.63
2018-07-20T23:03:48.379Z,23.63
2018-07-20T23:06:17.514Z,23.64
2018-07-20T23:08:46.394Z,23.65
2018-07-20T23:11:15.287Z,23.62
2018-07-20T23:13:44.611Z,23.54
2018-07-20T23:16:13.862Z,23.57
2018-07-20T23:18:43.100Z,23.60
2018-07-20T23:21:12.007Z,23.62
2018-07-20T23:23:40.954Z,23.56
2018-07-20T23:26:09.895Z,23.60
2018-07-20T23:28:38.777Z,23.58
2018-07-20T23:31:11.305Z,23.57
2018-07-20T23:33:40.210Z,23.55
2018-07-20T23:36:09.118Z,23.56
2018-07-20T23:38:38.023Z,23.57
2018-07-20T23:41:07.461Z,23.51
2018-07-20T23:43:40.040Z,23.54
2018-07-20T23:46:08.989Z,23.52
2018-07-20T23:48:37.889Z,23.48
2018-07-20T23:51:06.890Z,23.49
2018-07-20T23:53:35.788Z,23.47
2018-07-20T23:56:04.847Z,23.47
2018-07-20T23:58:33.754Z,23.44
